createdAt,value
2022-11-21T00:01:37.235Z,7.40
2022-11-21T00:04:05.720Z,7.50
2022-11-21T00:06:33.942Z,7.40
2022-11-21T00:09:02.059Z,7.50
2022-11-21T00:11:44.054Z,7.50
2022-11-21T00:14:14.618Z,7.50
2022-11-21T00:16:53.309Z,7.60
2022-11-21T00:19:33.018Z,7.70
2022-11-21T00:22:01.418Z,7.60
2022-11-21T00:24:31.977Z,7.60
2022-11-21T00:27:02.072Z,7.60
2022-11-21T00:29:30.508Z,7.60
2022-11-21T00:32:03.067Z,7.60
2022-11-21T00:34:32.201Z,7.60
2022-11-21T00:37:00.923Z,7.80
2022-11-21T00:39:29.825Z,7.80
2022-11-21T00:42:00.582Z,7.80
2022-11-21T00:44:31.016Z,7.70
2022-11-21T00:47:01.772Z,7.80
2022-11-21T00:49:34.543Z,7.70
2022-11-21T00:52:02.683Z,7.80
2022-11-21T00:54:30.829Z,7.80
2022-11-21T00:57:00.532Z,7.80
2022-11-21T00:59:30.155Z,7.80
2022-11-21T01:01:58.251Z,7.80
2022-11-21T01:04:42.248Z,7.80
2022-11-21T01:07:16.659Z,7.80
2022-11-21T01:09:46.083Z,7.80
2022-11-21T01:12:17.900Z,7.80
2022-11-21T01:14:46.025Z,7.80
2022-11-21T01:17:18.184Z,7.90
2022-11-21T01:19:49.094Z,7.80
2022-11-21T01:22:18.336Z,7.80
2022-11-21T01:24:48.737Z,7.80
2022-11-21T01:27:16.882Z,7.80
2022-11-21T01:29:48.183Z,7.80
2022-11-21T01:32:17.916Z,7.80
2022-11-21T01:34:48.593Z,7.60
2022-11-21T01:37:17.034Z,7.50
2022-11-21T01:39:46.279Z,7.50
2022-11-21T01:42:17.914Z,7.50
2022-11-21T01:44:51.456Z,7.40
2022-11-21T01:47:20.944Z,7.40
2022-11-21T01:49:53.330Z,7.40
2022-11-21T01:52:28.199Z,7.30
2022-11-21T01:55:03.757Z,7.30
2022-11-21T01:57:36.480Z,7.30
2022-11-21T02:00:12.088Z,7.30
2022-11-21T02:02:43.927Z,7.30
2022-11-21T02:05:20.833Z,7.40
2022-11-21T02:07:50.811Z,7.40
2022-11-21T02:10:20.589Z,7.40
2022-11-21T02:12:53.524Z,7.40
2022-11-21T02:15:27.264Z,7.50
2022-11-21T02:17:55.975Z,7.40
2022-11-21T02:20:30.226Z,7.40
2022-11-21T02:23:07.116Z,7.30
2022-11-21T02:25:38.356Z,7.30
2022-11-21T02:28:10.141Z,7.30
2022-11-21T02:30:41.361Z,7.20
2022-11-21T02:33:15.907Z,7.30
2022-11-21T02:35:46.975Z,7.30
2022-11-21T02:38:24.456Z,7.30
2022-11-21T02:41:01.381Z,7.30
2022-11-21T02:43:32.792Z,7.30
2022-11-21T02:46:02.105Z,7.30
2022-11-21T02:48:30.434Z,7.30
2022-11-21T02:50:58.683Z,7.30
2022-11-21T02:53:27.996Z,7.40
2022-11-21T02:55:57.529Z,7.30
2022-11-21T02:58:27.443Z,7.30
2022-11-21T03:00:56.299Z,7.20
2022-11-21T03:03:27.009Z,7.20
2022-11-21T03:05:55.736Z,7.30
2022-11-21T03:08:23.784Z,7.30
2022-11-21T03:10:51.905Z,7.30
2022-11-21T03:13:24.112Z,7.30
2022-11-21T03:15:55.428Z,7.30
2022-11-21T03:18:25.016Z,7.30
2022-11-21T03:20:57.686Z,7.30
2022-11-21T03:23:27.372Z,7.30
2022-11-21T03:25:55.432Z,7.40
2022-11-21T03:28:24.974Z,7.30
2022-11-21T03:30:53.124Z,7.40
2022-11-21T03:33:22.687Z,7.40
2022-11-21T03:35:54.571Z,7.40
2022-11-21T03:38:23.334Z,7.50
2022-11-21T03:40:52.830Z,7.50
2022-11-21T03:43:23.364Z,7.50
2022-11-21T03:45:52.943Z,7.60
2022-11-21T03:48:24.038Z,7.50
2022-11-21T03:50:55.060Z,7.50
2022-11-21T03:53:23.176Z,7.40
2022-11-21T03:55:52.980Z,7.40
2022-11-21T03:58:23.881Z,7.40
2022-11-21T04:00:53.937Z,7.30
2022-11-21T04:03:22.270Z,7.30
2022-11-21T04:05:53.768Z,7.20
2022-11-21T04:08:31.517Z,7.10
2022-11-21T04:10:59.903Z,7.10
2022-11-21T04:13:29.724Z,7.10
2022-11-21T04:16:04.103Z,7.10
2022-11-21T04:18:34.609Z,7.00
2022-11-21T04:21:07.271Z,6.90
2022-11-21T04:23:35.786Z,7.00
2022-11-21T04:26:03.890Z,6.90
2022-11-21T04:28:32.647Z,6.90
2022-11-21T04:31:11.169Z,6.90
2022-11-21T04:33:40.353Z,6.90
2022-11-21T04:36:10.919Z,7.00
2022-11-21T04:38:41.487Z,7.00
2022-11-21T04:41:11.141Z,7.10
2022-11-21T04:43:39.496Z,7.00
2022-11-21T04:46:10.419Z,7.00
2022-11-21T04:48:39.594Z,7.10
2022-11-21T04:51:08.815Z,7.10
2022-11-21T04:53:42.751Z,7.10
2022-11-21T04:56:16.504Z,7.20
2022-11-21T04:58:45.981Z,7.20
2022-11-21T05:01:17.616Z,7.30
2022-11-21T05:03:45.872Z,7.30
2022-11-21T05:06:15.342Z,7.30
2022-11-21T05:08:46.549Z,7.30
2022-11-21T05:11:34.994Z,7.30
2022-11-21T05:14:03.109Z,7.30
2022-11-21T05:16:34.108Z,7.30
2022-11-21T05:19:03.579Z,7.30
2022-11-21T05:21:31.693Z,7.30
2022-11-21T05:24:02.617Z,7.30
2022-11-21T05:26:33.099Z,7.20
2022-11-21T05:29:01.500Z,7.20
2022-11-21T05:31:36.557Z,7.30
2022-11-21T05:34:04.734Z,7.30
2022-11-21T05:36:35.170Z,7.30
2022-11-21T05:39:03.526Z,7.30
2022-11-21T05:41:34.525Z,7.30
2022-11-21T05:44:05.352Z,7.30
2022-11-21T05:46:35.139Z,7.30
2022-11-21T05:49:05.786Z,7.30
2022-11-21T05:51:35.747Z,7.40
2022-11-21T05:54:03.878Z,7.40
2022-11-21T05:56:33.202Z,7.50
2022-11-21T05:59:06.155Z,7.40
2022-11-21T06:02:10.456Z,7.50
2022-11-21T06:04:38.555Z,7.50
2022-11-21T06:09:49.193Z,7.40
2022-11-21T06:12:25.084Z,7.40
2022-11-21T06:14:56.316Z,7.40
2022-11-21T06:17:44.280Z,7.40
2022-11-21T06:20:13.081Z,7.40
2022-11-21T06:22:42.536Z,7.30
2022-11-21T06:25:11.961Z,7.30
2022-11-21T06:27:49.669Z,7.30
2022-11-21T06:30:22.560Z,7.30
2022-11-21T06:33:00.928Z,7.30
2022-11-21T06:35:38.076Z,7.40
2022-11-21T06:38:08.995Z,7.30
2022-11-21T06:40:39.378Z,7.30
2022-11-21T06:43:11.750Z,7.40
2022-11-21T06:45:39.864Z,7.40
2022-11-21T06:48:15.503Z,7.40
2022-11-21T06:50:53.567Z,7.40
2022-11-21T06:53:21.917Z,7.40
2022-11-21T06:55:50.316Z,7.50
2022-11-21T06:58:27.192Z,7.40
2022-11-21T07:03:44.893Z,7.50
2022-11-21T07:06:16.055Z,7.50
2022-11-21T07:08:45.460Z,7.50
2022-11-21T07:11:25.182Z,7.40
2022-11-21T07:13:53.906Z,7.60
2022-11-21T07:16:22.372Z,7.50
2022-11-21T07:18:57.350Z,7.60
2022-11-21T07:21:27.394Z,7.50
2022-11-21T07:24:00.268Z,7.50
2022-11-21T07:26:38.503Z,7.50
2022-11-21T07:29:22.553Z,7.50
2022-11-21T07:31:53.156Z,7.50
2022-11-21T07:34:22.701Z,7.50
2022-11-21T07:36:53.203Z,7.50
2022-11-21T07:39:23.703Z,7.50
2022-11-21T07:41:53.544Z,7.50
2022-11-21T07:44:24.986Z,7.50
2022-11-21T07:46:59.391Z,7.60
2022-11-21T07:49:31.682Z,7.60
2022-11-21T07:52:00.676Z,7.60
2022-11-21T07:54:32.544Z,7.70
2022-11-21T07:57:16.738Z,7.70
2022-11-21T07:59:48.741Z,7.70
2022-11-21T08:02:27.363Z,7.70
2022-11-21T08:05:03.302Z,7.70
2022-11-21T08:07:34.261Z,7.60
2022-11-21T08:10:08.399Z,7.60
2022-11-21T08:12:36.510Z,7.70
2022-11-21T08:15:11.072Z,7.80
2022-11-21T08:17:40.162Z,7.80
2022-11-21T08:20:15.936Z,7.80
2022-11-21T08:22:47.157Z,7.80
2022-11-21T08:25:20.857Z,7.80
2022-11-21T08:27:51.475Z,7.80
2022-11-21T08:30:23.521Z,7.80
2022-11-21T08:32:59.002Z,8.10
2022-11-21T08:35:30.715Z,8.10
2022-11-21T08:37:59.829Z,8.10
2022-11-21T08:40:31.125Z,8.10
2022-11-21T08:43:17.152Z,8.10
2022-11-21T08:45:48.476Z,8.20
2022-11-21T08:48:42.086Z,8.30
2022-11-21T08:51:15.874Z,8.30
2022-11-21T08:53:44.046Z,8.30
2022-11-21T08:56:12.228Z,8.50
2022-11-21T08:58:40.352Z,8.60
2022-11-21T09:01:08.548Z,8.50
2022-11-21T09:03:36.741Z,8.60
2022-11-21T09:06:06.244Z,8.50
2022-11-21T09:08:36.984Z,8.40
2022-11-21T09:14:11.553Z,8.60
2022-11-21T09:17:01.840Z,8.60
2022-11-21T09:19:36.059Z,8.80
2022-11-21T09:22:04.227Z,8.90
2022-11-21T09:24:33.866Z,8.80
2022-11-21T09:27:01.943Z,8.80
2022-11-21T09:29:33.688Z,8.70
2022-11-21T09:32:01.855Z,8.70
2022-11-21T09:34:32.234Z,8.80
2022-11-21T09:37:00.362Z,8.80
2022-11-21T09:39:28.918Z,9.00
2022-11-21T09:42:15.751Z,9.10
2022-11-21T09:44:58.794Z,9.00
2022-11-21T09:47:30.202Z,9.10
2022-11-21T09:50:01.398Z,9.00
2022-11-21T09:52:36.588Z,9.10
2022-11-21T09:55:08.413Z,9.20
2022-11-21T09:57:38.201Z,9.30
2022-11-21T10:00:17.155Z,9.20
2022-11-21T10:02:45.317Z,9.30
2022-11-21T10:05:15.676Z,9.40
2022-11-21T10:07:47.209Z,9.30
2022-11-21T10:10:31.517Z,9.30
2022-11-21T10:13:16.599Z,9.30
2022-11-21T10:15:57.487Z,9.40
2022-11-21T10:18:52.425Z,9.50
2022-11-21T10:21:37.345Z,9.70
2022-11-21T10:24:23.507Z,9.90
2022-11-21T10:26:54.629Z,10.00
2022-11-21T10:29:29.777Z,10.00
2022-11-21T10:32:00.408Z,9.90
2022-11-21T10:34:35.288Z,10.00
2022-11-21T10:37:12.924Z,10.00
2022-11-21T10:39:45.086Z,10.10
2022-11-21T10:42:24.223Z,9.90
2022-11-21T10:45:12.014Z,10.00
2022-11-21T10:47:40.210Z,10.10
2022-11-21T10:50:25.740Z,10.20
2022-11-21T10:53:28.753Z,10.30
2022-11-21T10:56:03.505Z,10.40
2022-11-21T10:58:46.196Z,10.40
2022-11-21T11:01:24.122Z,10.50
2022-11-21T11:07:23.389Z,10.30
2022-11-21T11:09:53.386Z,10.40
2022-11-21T11:12:51.023Z,10.40
2022-11-21T11:15:21.785Z,10.50
2022-11-21T11:17:59.727Z,10.50
2022-11-21T11:20:38.972Z,10.60
2022-11-21T11:23:28.665Z,10.60
2022-11-21T11:25:58.882Z,10.50
2022-11-21T11:28:28.405Z,10.40
2022-11-21T11:30:59.436Z,10.50
2022-11-21T11:33:35.226Z,10.60
2022-11-21T11:36:20.361Z,10.60
2022-11-21T11:38:59.488Z,10.60
2022-11-21T11:42:16.769Z,10.70
2022-11-21T11:45:13.087Z,10.60
2022-11-21T11:47:54.418Z,10.70
2022-11-21T11:50:27.986Z,10.90
2022-11-21T11:53:06.254Z,11.10
2022-11-21T11:55:43.538Z,11.20
2022-11-21T11:58:22.890Z,11.20
2022-11-21T12:00:59.005Z,11.30
2022-11-21T12:03:35.507Z,11.30
2022-11-21T12:06:11.135Z,11.30
2022-11-21T12:08:47.568Z,11.30
2022-11-21T12:11:42.479Z,11.40
2022-11-21T12:14:53.335Z,11.60
2022-11-21T12:17:29.167Z,11.80
2022-11-21T12:20:03.630Z,11.80
2022-11-21T12:22:52.015Z,11.70
2022-11-21T12:25:23.295Z,11.70
2022-11-21T12:27:57.345Z,11.80
2022-11-21T12:31:00.153Z,11.60
2022-11-21T12:33:30.336Z,11.80
2022-11-21T12:36:21.212Z,11.90
2022-11-21T12:39:26.249Z,11.90
2022-11-21T12:42:25.037Z,11.90
2022-11-21T12:45:13.989Z,11.80
2022-11-21T12:48:19.156Z,11.60
2022-11-21T12:51:10.089Z,11.70
2022-11-21T12:54:03.238Z,11.90
2022-11-21T12:56:53.318Z,12.00
2022-11-21T12:59:30.746Z,12.00
2022-11-21T13:02:20.460Z,12.00
2022-11-21T13:04:51.137Z,11.80
2022-11-21T13:07:29.688Z,11.70
2022-11-21T13:10:00.519Z,11.60
2022-11-21T13:12:40.116Z,11.70
2022-11-21T13:15:20.623Z,11.50
2022-11-21T13:17:59.600Z,11.50
2022-11-21T13:20:35.121Z,11.40
2022-11-21T13:23:06.586Z,11.40
2022-11-21T13:25:47.516Z,11.40
2022-11-21T13:28:36.932Z,11.40
2022-11-21T13:31:31.994Z,11.40
2022-11-21T13:34:01.068Z,11.30
2022-11-21T13:36:45.594Z,11.20
2022-11-21T13:39:38.351Z,11.10
2022-11-21T13:42:29.190Z,11.10
2022-11-21T13:44:59.372Z,10.90
2022-11-21T13:48:01.616Z,11.00
2022-11-21T13:50:48.772Z,11.10
2022-11-21T13:53:44.022Z,11.00
2022-11-21T13:56:26.195Z,11.10
2022-11-21T13:59:05.308Z,11.10
2022-11-21T14:02:00.377Z,11.00
2022-11-21T14:05:05.167Z,10.90
2022-11-21T14:07:35.008Z,10.90
2022-11-21T14:10:05.621Z,10.90
2022-11-21T14:12:42.795Z,10.90
2022-11-21T14:15:26.641Z,10.80
2022-11-21T14:17:58.495Z,10.80
2022-11-21T14:20:29.271Z,10.90
2022-11-21T14:23:01.692Z,10.80
2022-11-21T14:25:50.315Z,10.80
2022-11-21T14:28:24.043Z,10.80
2022-11-21T14:30:58.265Z,10.80
2022-11-21T14:33:30.076Z,10.80
2022-11-21T14:36:02.304Z,10.80
2022-11-21T14:38:32.288Z,10.70
2022-11-21T14:41:25.055Z,10.70
2022-11-21T14:44:04.143Z,10.70
2022-11-21T14:46:34.078Z,10.70
2022-11-21T14:49:23.657Z,10.60
2022-11-21T14:51:54.622Z,10.50
2022-11-21T14:54:24.698Z,10.50
2022-11-21T14:56:58.519Z,10.40
2022-11-21T14:59:29.444Z,10.30
2022-11-21T15:02:01.037Z,10.30
2022-11-21T15:04:33.498Z,10.20
2022-11-21T15:07:02.023Z,10.20
2022-11-21T15:10:26.509Z,10.10
2022-11-21T15:12:25.793Z,10.00
2022-11-21T15:14:58.672Z,9.90
2022-11-21T15:17:28.242Z,9.80
2022-11-21T15:20:21.343Z,9.70
2022-11-21T15:22:50.592Z,9.40
2022-11-21T15:25:20.892Z,9.30
2022-11-21T15:27:50.294Z,9.30
2022-11-21T15:30:27.801Z,9.10
2022-11-21T15:33:07.600Z,8.90
2022-11-21T15:35:57.995Z,8.80
2022-11-21T15:38:29.223Z,8.70
2022-11-21T15:41:23.484Z,8.50
2022-11-21T15:43:53.340Z,8.40
2022-11-21T15:46:23.144Z,8.40
2022-11-21T15:48:52.904Z,8.40
2022-11-21T15:51:44.355Z,8.30
2022-11-21T15:54:14.130Z,8.20
2022-11-21T15:56:42.516Z,8.10
2022-11-21T15:59:11.070Z,8.10
2022-11-21T16:01:39.292Z,8.00
2022-11-21T16:04:09.042Z,8.00
2022-11-21T16:06:43.305Z,8.00
2022-11-21T16:09:14.447Z,8.00
2022-11-21T16:11:47.221Z,7.90
2022-11-21T16:14:18.573Z,7.90
2022-11-21T16:16:48.414Z,7.90
2022-11-21T16:19:17.344Z,8.00
2022-11-21T16:21:49.682Z,8.00
2022-11-21T16:24:18.036Z,7.90
2022-11-21T16:26:47.120Z,7.80
2022-11-21T16:29:15.304Z,7.80
2022-11-21T16:31:43.492Z,7.70
2022-11-21T16:34:11.609Z,7.70
2022-11-21T16:36:39.759Z,7.70
2022-11-21T16:39:15.059Z,7.70
2022-11-21T16:41:46.098Z,7.70
2022-11-21T16:44:15.615Z,7.80
2022-11-21T16:46:45.451Z,7.80
2022-11-21T16:49:13.932Z,7.70
2022-11-21T16:51:42.094Z,7.70
2022-11-21T16:54:11.614Z,7.70
2022-11-21T16:56:39.755Z,7.80
2022-11-21T16:59:07.866Z,7.80
2022-11-21T17:01:36.230Z,7.80
2022-11-21T17:04:04.639Z,7.80
2022-11-21T17:06:33.481Z,7.80
2022-11-21T17:09:02.388Z,7.80
2022-11-21T17:11:32.600Z,7.80
2022-11-21T17:14:03.679Z,7.80
2022-11-21T17:16:33.254Z,7.80
2022-11-21T17:19:03.787Z,7.80
2022-11-21T17:21:32.913Z,7.90
2022-11-21T17:24:01.235Z,7.90
2022-11-21T17:26:31.569Z,7.90
2022-11-21T17:29:00.945Z,8.00
2022-11-21T17:31:29.514Z,8.00
2022-11-21T17:33:58.343Z,7.90
2022-11-21T17:36:28.209Z,7.90
2022-11-21T17:38:56.738Z,7.90
2022-11-21T17:41:25.983Z,7.90
2022-11-21T17:43:57.489Z,8.10
2022-11-21T17:46:26.575Z,8.10
2022-11-21T17:48:58.230Z,8.20
2022-11-21T17:51:28.890Z,8.20
2022-11-21T17:53:57.231Z,8.20
2022-11-21T17:56:27.423Z,8.10
2022-11-21T17:58:57.405Z,8.20
2022-11-21T18:01:25.886Z,8.20
2022-11-21T18:03:57.702Z,8.10
2022-11-21T18:06:27.366Z,8.10
2022-11-21T18:08:57.326Z,8.10
2022-11-21T18:11:28.616Z,8.20
2022-11-21T18:13:58.437Z,8.30
2022-11-21T18:16:28.277Z,8.30
2022-11-21T18:18:56.648Z,8.30
2022-11-21T18:21:27.510Z,8.30
2022-11-21T18:23:57.207Z,8.30
2022-11-21T18:26:27.218Z,8.30
2022-11-21T18:29:20.516Z,8.20
2022-11-21T18:31:46.926Z,8.20
2022-11-21T18:34:15.351Z,8.30
2022-11-21T18:36:43.562Z,8.40
2022-11-21T18:39:15.845Z,8.30
2022-11-21T18:41:49.877Z,8.30
2022-11-21T18:44:25.519Z,8.30
2022-11-21T18:46:53.705Z,8.20
2022-11-21T18:49:22.085Z,8.20
2022-11-21T18:51:50.313Z,8.20
2022-11-21T18:54:18.948Z,8.20
2022-11-21T18:56:47.687Z,8.20
2022-11-21T18:59:15.989Z,8.30
2022-11-21T19:01:46.252Z,8.30
2022-11-21T19:04:22.001Z,8.30
2022-11-21T19:06:50.155Z,8.30
2022-11-21T19:09:18.584Z,8.30
2022-11-21T19:11:46.702Z,8.40
2022-11-21T19:14:14.867Z,8.40
2022-11-21T19:16:43.089Z,8.40
2022-11-21T19:22:04.766Z,8.30
2022-11-21T19:24:33.461Z,8.30
2022-11-21T19:27:01.631Z,8.30
2022-11-21T19:29:30.237Z,8.30
2022-11-21T19:31:58.742Z,8.30
2022-11-21T19:34:28.375Z,8.30
2022-11-21T19:36:56.471Z,8.30
2022-11-21T19:39:24.711Z,8.30
2022-11-21T19:41:52.978Z,8.30
2022-11-21T19:44:21.156Z,8.30
2022-11-21T19:46:49.624Z,8.20
2022-11-21T19:49:19.442Z,8.20
2022-11-21T19:51:49.271Z,8.10
2022-11-21T19:54:17.744Z,7.90
2022-11-21T19:56:45.921Z,7.90
2022-11-21T19:59:14.737Z,8.00
2022-11-21T20:01:46.804Z,8.00
2022-11-21T20:04:16.416Z,8.00
2022-11-21T20:06:46.002Z,7.90
2022-11-21T20:09:17.587Z,7.80
2022-11-21T20:11:47.196Z,7.80
2022-11-21T20:14:21.414Z,7.80
2022-11-21T20:16:51.301Z,7.90
2022-11-21T20:19:21.232Z,7.90
2022-11-21T20:21:49.727Z,7.90
2022-11-21T20:24:19.383Z,7.80
2022-11-21T20:26:47.660Z,7.90
2022-11-21T20:29:16.423Z,7.80
2022-11-21T20:31:44.615Z,7.80
2022-11-21T20:34:13.982Z,7.80
2022-11-21T20:36:42.863Z,7.80
2022-11-21T20:39:15.217Z,7.80
2022-11-21T20:41:45.428Z,7.90
2022-11-21T20:47:03.951Z,8.00
2022-11-21T20:49:32.410Z,8.20
2022-11-21T20:54:48.844Z,8.20
2022-11-21T20:57:18.416Z,8.20
2022-11-21T20:59:46.526Z,8.20
2022-11-21T21:02:15.008Z,8.30
2022-11-21T21:04:43.333Z,8.30
2022-11-21T21:07:11.606Z,8.30
2022-11-21T21:09:39.867Z,8.30
2022-11-21T21:12:08.422Z,8.30
2022-11-21T21:14:37.990Z,8.30
2022-11-21T21:17:06.189Z,8.40
2022-11-21T21:19:34.366Z,8.40
2022-11-21T21:22:02.640Z,8.40
2022-11-21T21:24:30.719Z,8.40
2022-11-21T21:26:58.971Z,8.50
2022-11-21T21:29:27.409Z,8.40
2022-11-21T21:31:57.103Z,8.50
2022-11-21T21:34:25.272Z,8.60
2022-11-21T21:36:53.444Z,8.50
2022-11-21T21:39:21.578Z,8.50
2022-11-21T21:41:49.832Z,8.60
2022-11-21T21:44:17.969Z,8.60
2022-11-21T21:46:46.373Z,8.70
2022-11-21T21:49:15.995Z,8.70
2022-11-21T21:51:44.137Z,8.80
2022-11-21T21:54:18.626Z,8.80
2022-11-21T21:56:47.137Z,8.80
2022-11-21T21:59:15.606Z,8.80
2022-11-21T22:01:43.962Z,8.80
2022-11-21T22:04:13.415Z,8.80
2022-11-21T22:06:42.893Z,8.80
2022-11-21T22:09:11.206Z,8.90
2022-11-21T22:11:40.210Z,8.90
2022-11-21T22:14:12.417Z,8.90
2022-11-21T22:16:40.936Z,8.80
2022-11-21T22:19:09.821Z,8.80
2022-11-21T22:21:39.084Z,8.80
2022-11-21T22:24:28.741Z,8.80
2022-11-21T22:26:57.110Z,8.80
2022-11-21T22:29:25.252Z,8.80
2022-11-21T22:31:53.591Z,8.80
2022-11-21T22:34:21.877Z,8.90
2022-11-21T22:36:50.086Z,9.00
2022-11-21T22:39:20.139Z,9.10
2022-11-21T22:41:48.330Z,9.20
2022-11-21T22:44:16.498Z,9.20
2022-11-21T22:49:29.792Z,9.30
2022-11-21T22:52:04.859Z,9.20
2022-11-21T22:54:40.241Z,9.30
2022-11-21T22:57:10.418Z,9.30
2022-11-21T22:59:38.746Z,9.30
2022-11-21T23:02:07.328Z,9.30
2022-11-21T23:04:38.110Z,9.30
2022-11-21T23:07:08.467Z,9.30
2022-11-21T23:09:38.067Z,9.30
2022-11-21T23:12:09.217Z,9.30
2022-11-21T23:14:39.019Z,9.30
2022-11-21T23:17:07.174Z,9.30
2022-11-21T23:19:35.236Z,9.30
2022-11-21T23:22:03.379Z,9.40
2022-11-21T23:24:33.501Z,9.30
2022-11-21T23:27:26.139Z,9.30
2022-11-21T23:29:56.789Z,9.30
2022-11-21T23:32:26.306Z,9.30
2022-11-21T23:34:55.625Z,9.30
2022-11-21T23:37:25.538Z,9.30
2022-11-21T23:39:53.637Z,9.30
2022-11-21T23:42:25.666Z,9.30
2022-11-21T23:44:57.651Z,9.30
2022-11-21T23:47:32.843Z,9.30
2022-11-21T23:50:03.257Z,9.30
2022-11-21T23:52:37.941Z,9.30
2022-11-21T23:55:09.285Z,9.30
2022-11-21T23:57:40.594Z,9.40
